sensor_id;sensor_type;location;lat;lon;timestamp;pressure;altitude;pressure_sealevel;temperature;humidity
1832;BME280;1680;48.106;11.708;2023-01-29T00:00:05;96390.97;;;1.60;100.00
1832;BME280;1680;48.106;11.708;2023-01-29T00:02:36;96393.69;;;1.59;100.00
1832;BME280;1680;48.106;11.708;2023-01-29T00:05:04;96385.72;;;1.70;100.00
1832;BME280;1680;48.106;11.708;2023-01-29T00:07:32;96387.34;;;1.71;100.00
1832;BME280;1680;48.106;11.708;2023-01-29T00:09:59;96382.31;;;1.69;100.00
1832;BME280;1680;48.106;11.708;2023-01-29T00:12:26;96387.13;;;1.64;100.00
1832;BME280;1680;48.106;11.708;2023-01-29T00:14:54;96387.94;;;1.65;100.00
1832;BME280;1680;48.106;11.708;2023-01-29T00:17:21;96383.50;;;1.75;100.00
1832;BME280;1680;48.106;11.708;2023-01-29T00:19:50;96377.34;;;1.76;100.00
1832;BME280;1680;48.106;11.708;2023-01-29T00:22:17;96383.03;;;1.62;100.00
1832;BME280;1680;48.106;11.708;2023-01-29T00:24:45;96365.56;;;1.56;100.00
1832;BME280;1680;48.106;11.708;2023-01-29T00:27:12;96391.84;;;1.69;100.00
1832;BME280;1680;48.106;11.708;2023-01-29T00:29:39;96382.81;;;1.73;100.00
1832;BME280;1680;48.106;11.708;2023-01-29T00:32:08;96389.31;;;1.77;100.00
1832;BME280;1680;48.106;11.708;2023-01-29T00:34:35;96390.66;;;1.81;100.00
1832;BME280;1680;48.106;11.708;2023-01-29T00:37:04;96391.41;;;1.73;100.00
1832;BME280;1680;48.106;11.708;2023-01-29T00:39:33;96386.59;;;1.61;100.00
1832;BME280;1680;48.106;11.708;2023-01-29T00:42:04;96395.47;;;1.76;100.00
1832;BME280;1680;48.106;11.708;2023-01-29T00:44:49;96390.50;;;1.82;100.00
1832;BME280;1680;48.106;11.708;2023-01-29T00:47:25;96399.53;;;1.78;100.00
1832;BME280;1680;48.106;11.708;2023-01-29T00:49:59;96393.03;;;1.74;100.00
1832;BME280;1680;48.106;11.708;2023-01-29T00:52:28;96393.25;;;1.81;100.00
1832;BME280;1680;48.106;11.708;2023-01-29T00:54:58;96394.88;;;1.82;100.00
1832;BME280;1680;48.106;11.708;2023-01-29T00:57:27;96399.38;;;1.80;100.00
1832;BME280;1680;48.106;11.708;2023-01-29T00:59:55;96398.88;;;1.76;100.00
1832;BME280;1680;48.106;11.708;2023-01-29T01:02:23;96398.88;;;1.76;100.00
1832;BME280;1680;48.106;11.708;2023-01-29T01:05:09;96398.59;;;1.79;100.00
1832;BME280;1680;48.106;11.708;2023-01-29T01:07:39;96376.34;;;1.69;100.00
1832;BME280;1680;48.106;11.708;2023-01-29T01:10:08;96393.47;;;1.70;100.00
1832;BME280;1680;48.106;11.708;2023-01-29T01:12:45;96395.09;;;1.71;100.00
1832;BME280;1680;48.106;11.708;2023-01-29T01:15:13;96393.59;;;1.68;100.00
1832;BME280;1680;48.106;11.708;2023-01-29T01:17:40;96392.06;;;1.75;100.00
1832;BME280;1680;48.106;11.708;2023-01-29T01:20:09;96402.25;;;1.77;100.00
1832;BME280;1680;48.106;11.708;2023-01-29T01:22:36;96406.75;;;1.75;100.00
1832;BME280;1680;48.106;11.708;2023-01-29T01:25:05;96418.94;;;1.65;100.00
1832;BME280;1680;48.106;11.708;2023-01-29T01:27:33;96414.06;;;1.62;100.00
1832;BME280;1680;48.106;11.708;2023-01-29T01:30:07;96409.84;;;1.61;100.00
1832;BME280;1680;48.106;11.708;2023-01-29T01:32:35;96407.25;;;1.61;100.00
1832;BME280;1680;48.106;11.708;2023-01-29T01:35:02;96390.81;;;1.62;100.00
1832;BME280;1680;48.106;11.708;2023-01-29T01:37:29;96409.94;;;1.69;100.00
1832;BME280;1680;48.106;11.708;2023-01-29T01:39:57;96384.75;;;1.53;100.00
1832;BME280;1680;48.106;11.708;2023-01-29T01:42:28;96400.91;;;1.73;100.00
1832;BME280;1680;48.106;11.708;2023-01-29T01:44:58;96412.31;;;1.62;100.00
1832;BME280;1680;48.106;11.708;2023-01-29T01:47:34;96418.56;;;1.60;100.00
1832;BME280;1680;48.106;11.708;2023-01-29T01:50:07;96402.75;;;1.45;100.00
1832;BME280;1680;48.106;11.708;2023-01-29T01:52:38;96404.91;;;1.50;100.00
1832;BME280;1680;48.106;11.708;2023-01-29T01:55:10;96409.28;;;1.49;100.00
1832;BME280;1680;48.106;11.708;2023-01-29T01:57:41;96407.88;;;1.55;100.00
1832;BME280;1680;48.106;11.708;2023-01-29T02:03:27;96414.91;;;1.62;100.00
1832;BME280;1680;48.106;11.708;2023-01-29T02:06:13;96405.34;;;1.63;100.00
1832;BME280;1680;48.106;11.708;2023-01-29T02:09:02;96419.16;;;1.54;100.00
1832;BME280;1680;48.106;11.708;2023-01-29T02:11:49;96400.31;;;1.44;100.00
1832;BME280;1680;48.106;11.708;2023-01-29T02:14:18;96413.31;;;1.52;100.00
1832;BME280;1680;48.106;11.708;2023-01-29T02:16:46;96415.53;;;1.47;100.00
1832;BME280;1680;48.106;11.708;2023-01-29T02:19:16;96419.44;;;1.51;100.00
1832;BME280;1680;48.106;11.708;2023-01-29T02:24:58;96415.63;;;1.55;100.00
1832;BME280;1680;48.106;11.708;2023-01-29T02:27:43;96416.88;;;1.51;100.00
1832;BME280;1680;48.106;11.708;2023-01-29T02:30:18;96421.19;;;1.50;100.00
1832;BME280;1680;48.106;11.708;2023-01-29T02:32:53;96421.06;;;1.52;100.00
1832;BME280;1680;48.106;11.708;2023-01-29T02:35:28;96420.78;;;1.55;100.00
1832;BME280;1680;48.106;11.708;2023-01-29T02:38:10;96416.59;;;1.54;100.00
1832;BME280;1680;48.106;11.708;2023-01-29T02:40:42;96416.72;;;1.52;100.00
1832;BME280;1680;48.106;11.708;2023-01-29T02:43:26;96410.59;;;1.53;100.00
1832;BME280;1680;48.106;11.708;2023-01-29T02:46:03;96404.69;;;1.61;100.00
1832;BME280;1680;48.106;11.708;2023-01-29T02:48:39;96397.16;;;1.67;100.00
1832;BME280;1680;48.106;11.708;2023-01-29T02:51:15;96396.63;;;1.64;100.00
1832;BME280;1680;48.106;11.708;2023-01-29T02:53:50;96392.88;;;1.58;100.00
1832;BME280;1680;48.106;11.708;2023-01-29T02:56:21;96381.41;;;1.61;100.00
1832;BME280;1680;48.106;11.708;2023-01-29T02:58:58;96398.84;;;1.59;100.00
1832;BME280;1680;48.106;11.708;2023-01-29T03:01:32;96392.88;;;1.58;100.00
1832;BME280;1680;48.106;11.708;2023-01-29T03:04:03;96392.44;;;1.63;100.00
1832;BME280;1680;48.106;11.708;2023-01-29T03:06:36;96391.19;;;1.67;100.00
1832;BME280;1680;48.106;11.708;2023-01-29T03:09:09;96398.34;;;1.55;100.00
1832;BME280;1680;48.106;11.708;2023-01-29T03:11:41;96401.19;;;1.52;100.00
1832;BME280;1680;48.106;11.708;2023-01-29T03:14:13;96397.00;;;1.51;100.00
1832;BME280;1680;48.106;11.708;2023-01-29T03:16:47;96365.47;;;1.30;100.00
1832;BME280;1680;48.106;11.708;2023-01-29T03:19:19;96406.44;;;1.43;100.00
1832;BME280;1680;48.106;11.708;2023-01-29T03:21:50;96393.16;;;1.38;100.00
1832;BME280;1680;48.106;11.708;2023-01-29T03:24:38;96380.91;;;1.40;100.00
1832;BME280;1680;48.106;11.708;2023-01-29T03:27:27;96392.94;;;1.49;100.00
1832;BME280;1680;48.106;11.708;2023-01-29T03:30:15;96389.69;;;1.47;100.00
1832;BME280;1680;48.106;11.708;2023-01-29T03:33:05;96405.13;;;1.39;100.00
1832;BME280;1680;48.106;11.708;2023-01-29T03:35:37;96395.44;;;1.41;100.00
1832;BME280;1680;48.106;11.708;2023-01-29T03:38:08;96405.47;;;1.44;100.00
1832;BME280;1680;48.106;11.708;2023-01-29T03:40:43;96400.78;;;1.30;100.00
1832;BME280;1680;48.106;11.708;2023-01-29T03:43:20;96408.53;;;1.30;100.00
1832;BME280;1680;48.106;11.708;2023-01-29T03:45:59;96398.66;;;1.43;100.00
1832;BME280;1680;48.106;11.708;2023-01-29T03:48:34;96404.66;;;1.43;100.00
1832;BME280;1680;48.106;11.708;2023-01-29T03:51:13;96392.19;;;1.39;100.00
1832;BME280;1680;48.106;11.708;2023-01-29T03:53:47;96388.34;;;1.43;100.00
1832;BME280;1680;48.106;11.708;2023-01-29T03:56:24;96397.06;;;1.42;100.00
1832;BME280;1680;48.106;11.708;2023-01-29T03:59:00;96395.53;;;1.49;100.00
1832;BME280;1680;48.106;11.708;2023-01-29T04:01:32;96381.25;;;1.45;100.00
1832;BME280;1680;48.106;11.708;2023-01-29T04:04:10;96370.84;;;1.54;100.00
1832;BME280;1680;48.106;11.708;2023-01-29T04:06:42;96378.25;;;1.49;100.00
1832;BME280;1680;48.106;11.708;2023-01-29T04:09:14;96359.69;;;1.36;100.00
1832;BME280;1680;48.106;11.708;2023-01-29T04:11:50;96336.03;;;1.14;100.00
1832;BME280;1680;48.106;11.708;2023-01-29T04:14:20;96360.31;;;1.48;100.00
1832;BME280;1680;48.106;11.708;2023-01-29T04:16:51;96362.59;;;1.33;100.00
1832;BME280;1680;48.106;11.708;2023-01-29T04:19:21;96366.25;;;1.31;100.00
1832;BME280;1680;48.106;11.708;2023-01-29T04:21:58;96356.59;;;1.33;100.00
1832;BME280;1680;48.106;11.708;2023-01-29T04:24:26;96374.16;;;1.12;100.00
1832;BME280;1680;48.106;11.708;2023-01-29T04:26:59;96365.22;;;1.24;100.00
1832;BME280;1680;48.106;11.708;2023-01-29T04:29:37;96317.50;;;1.01;100.00
1832;BME280;1680;48.106;11.708;2023-01-29T04:32:10;96363.38;;;1.34;100.00
1832;BME280;1680;48.106;11.708;2023-01-29T04:34:52;96367.22;;;1.30;100.00
1832;BME280;1680;48.106;11.708;2023-01-29T04:37:31;96357.75;;;1.21;100.00
1832;BME280;1680;48.106;11.708;2023-01-29T04:40:09;96347.44;;;1.21;100.00
1832;BME280;1680;48.106;11.708;2023-01-29T04:42:45;96359.09;;;1.25;100.00
1832;BME280;1680;48.106;11.708;2023-01-29T04:45:18;96369.50;;;1.33;100.00
1832;BME280;1680;48.106;11.708;2023-01-29T04:47:59;96369.06;;;1.20;100.00
1832;BME280;1680;48.106;11.708;2023-01-29T04:50:35;96367.44;;;1.19;100.00
1832;BME280;1680;48.106;11.708;2023-01-29T04:53:10;96379.22;;;1.21;100.00
1832;BME280;1680;48.106;11.708;2023-01-29T04:55:43;96374.84;;;1.31;100.00
1832;BME280;1680;48.106;11.708;2023-01-29T04:58:16;96379.56;;;1.36;100.00
1832;BME280;1680;48.106;11.708;2023-01-29T05:00:48;96368.78;;;1.40;100.00
1832;BME280;1680;48.106;11.708;2023-01-29T05:03:20;96371.53;;;1.39;100.00
1832;BME280;1680;48.106;11.708;2023-01-29T05:05:50;96364.44;;;1.41;100.00
1832;BME280;1680;48.106;11.708;2023-01-29T05:08:22;96362.50;;;1.43;100.00
1832;BME280;1680;48.106;11.708;2023-01-29T05:10:52;96371.47;;;1.48;100.00
1832;BME280;1680;48.106;11.708;2023-01-29T05:13:21;96375.13;;;1.46;100.00
1832;BME280;1680;48.106;11.708;2023-01-29T05:15:56;96377.38;;;1.41;100.00
1832;BME280;1680;48.106;11.708;2023-01-29T05:18:25;96380.22;;;1.38;100.00
1832;BME280;1680;48.106;11.708;2023-01-29T05:20:55;96388.72;;;1.48;100.00
1832;BME280;1680;48.106;11.708;2023-01-29T05:23:23;96386.63;;;1.34;100.00
1832;BME280;1680;48.106;11.708;2023-01-29T05:25:51;96391.97;;;1.32;100.00
1832;BME280;1680;48.106;11.708;2023-01-29T05:28:18;96387.31;;;1.36;100.00
1832;BME280;1680;48.106;11.708;2023-01-29T05:30:46;96392.75;;;1.33;100.00
1832;BME280;1680;48.106;11.708;2023-01-29T05:33:16;96380.06;;;1.22;100.00
1832;BME280;1680;48.106;11.708;2023-01-29T05:35:43;96398.25;;;1.20;100.00
1832;BME280;1680;48.106;11.708;2023-01-29T05:38:12;96407.00;;;1.19;100.00
1832;BME280;1680;48.106;11.708;2023-01-29T05:40:40;96370.25;;;0.98;100.00
1832;BME280;1680;48.106;11.708;2023-01-29T05:43:14;96412.75;;;1.31;100.00
1832;BME280;1680;48.106;11.708;2023-01-29T05:45:41;96412.41;;;1.26;100.00
1832;BME280;1680;48.106;11.708;2023-01-29T05:48:08;96419.13;;;1.36;100.00
1832;BME280;1680;48.106;11.708;2023-01-29T05:50:36;96425.34;;;1.43;100.00
1832;BME280;1680;48.106;11.708;2023-01-29T05:53:03;96401.03;;;1.36;100.00
1832;BME280;1680;48.106;11.708;2023-01-29T05:55:32;96402.88;;;1.26;100.00
1832;BME280;1680;48.106;11.708;2023-01-29T05:57:59;96417.56;;;1.26;100.00
1832;BME280;1680;48.106;11.708;2023-01-29T06:00:26;96416.31;;;1.30;100.00
1832;BME280;1680;48.106;11.708;2023-01-29T06:02:54;96410.34;;;1.29;100.00
1832;BME280;1680;48.106;11.708;2023-01-29T06:05:21;96399.56;;;1.34;100.00
1832;BME280;1680;48.106;11.708;2023-01-29T06:07:49;96415.72;;;1.36;100.00
1832;BME280;1680;48.106;11.708;2023-01-29T06:10:17;96410.41;;;1.37;100.00
1832;BME280;1680;48.106;11.708;2023-01-29T06:12:46;96410.63;;;1.26;100.00
1832;BME280;1680;48.106;11.708;2023-01-29T06:15:13;96409.00;;;1.25;100.00
1832;BME280;1680;48.106;11.708;2023-01-29T06:17:41;96408.25;;;1.33;100.00
1832;BME280;1680;48.106;11.708;2023-01-29T06:20:09;96400.13;;;1.28;100.00
1832;BME280;1680;48.106;11.708;2023-01-29T06:22:37;96404.34;;;1.29;100.00
1832;BME280;1680;48.106;11.708;2023-01-29T06:25:05;96405.06;;;1.66;100.00
1832;BME280;1680;48.106;11.708;2023-01-29T06:27:33;96406.97;;;1.64;100.00
1832;BME280;1680;48.106;11.708;2023-01-29T06:30:01;96412.38;;;1.53;100.00
1832;BME280;1680;48.106;11.708;2023-01-29T06:32:29;96410.13;;;1.58;100.00
1832;BME280;1680;48.106;11.708;2023-01-29T06:34:56;96419.59;;;1.49;100.00
1832;BME280;1680;48.106;11.708;2023-01-29T06:37:23;96418.84;;;1.39;100.00
1832;BME280;1680;48.106;11.708;2023-01-29T06:39:50;96413.66;;;1.39;100.00
1832;BME280;1680;48.106;11.708;2023-01-29T06:42:18;96402.44;;;1.31;100.00
1832;BME280;1680;48.106;11.708;2023-01-29T06:44:52;96420.47;;;1.40;100.00
1832;BME280;1680;48.106;11.708;2023-01-29T06:47:21;96426.81;;;1.46;100.00
1832;BME280;1680;48.106;11.708;2023-01-29T06:49:50;96408.25;;;1.33;100.00
1832;BME280;1680;48.106;11.708;2023-01-29T06:52:18;96421.91;;;1.70;95.86
1832;BME280;1680;48.106;11.708;2023-01-29T06:54:45;96416.34;;;1.47;97.33
1832;BME280;1680;48.106;11.708;2023-01-29T06:57:12;96405.88;;;1.22;100.00
1832;BME280;1680;48.106;11.708;2023-01-29T06:59:39;96429.75;;;1.33;100.00
1832;BME280;1680;48.106;11.708;2023-01-29T07:02:10;96428.25;;;1.31;100.00
1832;BME280;1680;48.106;11.708;2023-01-29T07:04:39;96421.56;;;1.38;100.00
1832;BME280;1680;48.106;11.708;2023-01-29T07:07:08;96412.72;;;1.40;100.00
1832;BME280;1680;48.106;11.708;2023-01-29T07:09:39;96411.91;;;1.40;100.00
1832;BME280;1680;48.106;11.708;2023-01-29T07:12:07;96425.69;;;1.31;100.00
1832;BME280;1680;48.106;11.708;2023-01-29T07:14:35;96422.53;;;1.37;100.00
1832;BME280;1680;48.106;11.708;2023-01-29T07:17:02;96415.88;;;1.34;100.00
1832;BME280;1680;48.106;11.708;2023-01-29T07:19:30;96394.38;;;1.34;100.00
1832;BME280;1680;48.106;11.708;2023-01-29T07:21:58;96395.28;;;1.25;100.00
1832;BME280;1680;48.106;11.708;2023-01-29T07:24:26;96405.19;;;1.47;100.00
1832;BME280;1680;48.106;11.708;2023-01-29T07:26:54;96404.22;;;1.48;100.00
1832;BME280;1680;48.106;11.708;2023-01-29T07:29:21;96392.44;;;1.45;100.00
1832;BME280;1680;48.106;11.708;2023-01-29T07:31:48;96397.31;;;1.48;100.00
1832;BME280;1680;48.106;11.708;2023-01-29T07:34:16;96398.50;;;1.54;100.00
1832;BME280;1680;48.106;11.708;2023-01-29T07:36:43;96402.25;;;1.59;100.00
1832;BME280;1680;48.106;11.708;2023-01-29T07:39:11;96405.06;;;1.66;100.00
1832;BME280;1680;48.106;11.708;2023-01-29T07:41:39;96389.84;;;1.63;100.00
1832;BME280;1680;48.106;11.708;2023-01-29T07:44:06;96384.69;;;1.63;100.00
1832;BME280;1680;48.106;11.708;2023-01-29T07:46:33;96395.34;;;1.33;99.22
1832;BME280;1680;48.106;11.708;2023-01-29T07:49:00;96399.16;;;1.29;95.72
1832;BME280;1680;48.106;11.708;2023-01-29T07:51:28;96389.28;;;1.24;95.94
1832;BME280;1680;48.106;11.708;2023-01-29T07:53:55;96389.75;;;1.37;96.06
1832;BME280;1680;48.106;11.708;2023-01-29T07:56:24;96386.44;;;1.45;96.70
1832;BME280;1680;48.106;11.708;2023-01-29T07:58:51;96377.53;;;1.57;98.15
1832;BME280;1680;48.106;11.708;2023-01-29T08:01:19;96380.22;;;1.73;98.13
1832;BME280;1680;48.106;11.708;2023-01-29T08:03:46;96382.25;;;1.61;97.71
1832;BME280;1680;48.106;11.708;2023-01-29T08:06:13;96373.88;;;1.67;97.50
1832;BME280;1680;48.106;11.708;2023-01-29T08:08:40;96374.78;;;1.76;94.49
1832;BME280;1680;48.106;11.708;2023-01-29T08:11:07;96375.53;;;1.86;92.06
1832;BME280;1680;48.106;11.708;2023-01-29T08:13:36;96368.34;;;1.80;93.12
1832;BME280;1680;48.106;11.708;2023-01-29T08:16:04;96323.44;;;1.46;93.94
1832;BME280;1680;48.106;11.708;2023-01-29T08:18:32;96372.41;;;1.82;94.79
1832;BME280;1680;48.106;11.708;2023-01-29T08:21:00;96347.91;;;1.69;95.96
1832;BME280;1680;48.106;11.708;2023-01-29T08:23:27;96380.38;;;1.88;93.51
1832;BME280;1680;48.106;11.708;2023-01-29T08:25:55;96378.84;;;1.95;94.21
1832;BME280;1680;48.106;11.708;2023-01-29T08:28:22;96374.84;;;2.01;95.06
1832;BME280;1680;48.106;11.708;2023-01-29T08:30:50;96380.22;;;2.07;93.38
1832;BME280;1680;48.106;11.708;2023-01-29T08:33:18;96382.75;;;1.99;92.34
1832;BME280;1680;48.106;11.708;2023-01-29T08:35:48;96387.59;;;2.02;90.98
1832;BME280;1680;48.106;11.708;2023-01-29T08:38:16;96393.69;;;1.93;93.05
1832;BME280;1680;48.106;11.708;2023-01-29T08:40:43;96391.31;;;2.00;92.32
1832;BME280;1680;48.106;11.708;2023-01-29T08:43:11;96400.41;;;2.04;90.93
1832;BME280;1680;48.106;11.708;2023-01-29T08:45:40;96398.41;;;1.98;90.81
1832;BME280;1680;48.106;11.708;2023-01-29T08:48:10;96401.41;;;2.11;89.82
1832;BME280;1680;48.106;11.708;2023-01-29T08:50:37;96417.16;;;2.17;89.78
1832;BME280;1680;48.106;11.708;2023-01-29T08:53:06;96392.44;;;1.97;89.10
1832;BME280;1680;48.106;11.708;2023-01-29T08:55:34;96421.38;;;2.01;88.65
1832;BME280;1680;48.106;11.708;2023-01-29T08:58:02;96427.69;;;1.98;88.41
1832;BME280;1680;48.106;11.708;2023-01-29T09:00:30;96425.59;;;2.19;88.08
1832;BME280;1680;48.106;11.708;2023-01-29T09:02:58;96431.88;;;2.17;87.72
1832;BME280;1680;48.106;11.708;2023-01-29T09:05:27;96427.28;;;2.28;86.27
1832;BME280;1680;48.106;11.708;2023-01-29T09:07:55;96418.03;;;2.43;85.11
1832;BME280;1680;48.106;11.708;2023-01-29T09:10:23;96418.78;;;2.18;86.47
1832;BME280;1680;48.106;11.708;2023-01-29T09:12:50;96432.69;;;2.17;87.02
1832;BME280;1680;48.106;11.708;2023-01-29T09:15:18;96435.44;;;2.16;86.31
1832;BME280;1680;48.106;11.708;2023-01-29T09:17:45;96439.13;;;2.13;88.06
1832;BME280;1680;48.106;11.708;2023-01-29T09:20:14;96445.34;;;2.03;89.19
1832;BME280;1680;48.106;11.708;2023-01-29T09:22:43;96439.94;;;2.14;88.27
1832;BME280;1680;48.106;11.708;2023-01-29T09:25:10;96402.63;;;1.82;89.26
1832;BME280;1680;48.106;11.708;2023-01-29T09:27:37;96440.78;;;1.53;89.14
1832;BME280;1680;48.106;11.708;2023-01-29T09:30:06;96456.94;;;1.82;89.73
1832;BME280;1680;48.106;11.708;2023-01-29T09:32:33;96458.13;;;2.04;88.70
1832;BME280;1680;48.106;11.708;2023-01-29T09:35:01;96459.31;;;2.27;87.78
1832;BME280;1680;48.106;11.708;2023-01-29T09:37:28;96457.06;;;2.32;85.50
1832;BME280;1680;48.106;11.708;2023-01-29T09:39:57;96460.19;;;2.18;84.77
1832;BME280;1680;48.106;11.708;2023-01-29T09:42:27;96470.75;;;2.25;85.89
1832;BME280;1680;48.106;11.708;2023-01-29T09:45:02;96446.97;;;2.04;84.33
1832;BME280;1680;48.106;11.708;2023-01-29T09:47:33;96467.06;;;2.27;83.53
1832;BME280;1680;48.106;11.708;2023-01-29T09:50:05;96470.75;;;2.25;84.80
1832;BME280;1680;48.106;11.708;2023-01-29T09:52:35;96479.47;;;2.41;84.74
1832;BME280;1680;48.106;11.708;2023-01-29T09:55:09;96475.31;;;2.48;85.38
1832;BME280;1680;48.106;11.708;2023-01-29T09:57:49;96477.38;;;2.62;85.27
1832;BME280;1680;48.106;11.708;2023-01-29T10:00:22;96476.72;;;2.60;83.55
1832;BME280;1680;48.106;11.708;2023-01-29T10:03:19;96468.78;;;2.62;82.91
1832;BME280;1680;48.106;11.708;2023-01-29T10:06:01;96464.66;;;2.69;82.60
1832;BME280;1680;48.106;11.708;2023-01-29T10:08:57;96465.69;;;2.58;80.74
1832;BME280;1680;48.106;11.708;2023-01-29T10:11:36;96467.41;;;2.32;82.24
1832;BME280;1680;48.106;11.708;2023-01-29T10:14:13;96451.66;;;2.43;82.70
1832;BME280;1680;48.106;11.708;2023-01-29T10:16:52;96466.34;;;2.60;83.37
1832;BME280;1680;48.106;11.708;2023-01-29T10:19:50;96466.88;;;2.64;82.81
1832;BME280;1680;48.106;11.708;2023-01-29T10:22:37;96458.19;;;2.73;83.36
1832;BME280;1680;48.106;11.708;2023-01-29T10:25:13;96432.06;;;2.66;83.32
1832;BME280;1680;48.106;11.708;2023-01-29T10:27:46;96447.69;;;2.74;80.99
1832;BME280;1680;48.106;11.708;2023-01-29T10:30:25;96453.53;;;2.76;81.78
1832;BME280;1680;48.106;11.708;2023-01-29T10:32:54;96450.59;;;2.79;82.73
1832;BME280;1680;48.106;11.708;2023-01-29T10:35:24;96417.00;;;2.62;81.98
1832;BME280;1680;48.106;11.708;2023-01-29T10:37:57;96448.53;;;2.83;82.75
1832;BME280;1680;48.106;11.708;2023-01-29T10:40:31;96442.84;;;2.79;82.05
1832;BME280;1680;48.106;11.708;2023-01-29T10:43:08;96451.84;;;2.92;82.97
1832;BME280;1680;48.106;11.708;2023-01-29T10:45:43;96402.16;;;2.72;82.88
1832;BME280;1680;48.106;11.708;2023-01-29T10:48:40;96449.81;;;3.04;80.93
1832;BME280;1680;48.106;11.708;2023-01-29T10:54:13;96400.09;;;2.75;81.53
1832;BME280;1680;48.106;11.708;2023-01-29T10:56:55;96432.19;;;3.15;82.46
1832;BME280;1680;48.106;11.708;2023-01-29T10:59:38;96432.41;;;3.22;82.23
1832;BME280;1680;48.106;11.708;2023-01-29T11:02:15;96438.69;;;3.19;81.10
1832;BME280;1680;48.106;11.708;2023-01-29T11:04:44;96442.13;;;3.28;77.93
1832;BME280;1680;48.106;11.708;2023-01-29T11:07:12;96436.19;;;3.02;80.63
1832;BME280;1680;48.106;11.708;2023-01-29T11:09:43;96425.00;;;3.01;81.27
1832;BME280;1680;48.106;11.708;2023-01-29T11:12:13;96418.44;;;2.56;81.40
1832;BME280;1680;48.106;11.708;2023-01-29T11:14:46;96374.16;;;2.16;83.32
1832;BME280;1680;48.106;11.708;2023-01-29T11:17:16;96420.34;;;2.54;84.37
1832;BME280;1680;48.106;11.708;2023-01-29T11:19:45;96371.72;;;2.15;82.91
1832;BME280;1680;48.106;11.708;2023-01-29T11:22:14;96420.16;;;2.48;83.97
1832;BME280;1680;48.106;11.708;2023-01-29T11:24:42;96420.34;;;2.54;84.04
1832;BME280;1680;48.106;11.708;2023-01-29T11:27:15;96420.75;;;2.67;83.68
1832;BME280;1680;48.106;11.708;2023-01-29T11:29:49;96414.69;;;2.76;84.31
1832;BME280;1680;48.106;11.708;2023-01-29T11:32:24;96420.94;;;2.99;82.53
1832;BME280;1680;48.106;11.708;2023-01-29T11:34:57;96405.22;;;2.92;80.85
1832;BME280;1680;48.106;11.708;2023-01-29T11:37:32;96415.56;;;2.92;81.72
1832;BME280;1680;48.106;11.708;2023-01-29T11:40:00;96405.38;;;2.91;81.96
1832;BME280;1680;48.106;11.708;2023-01-29T11:42:30;96414.44;;;2.95;81.47
1832;BME280;1680;48.106;11.708;2023-01-29T11:44:59;96399.41;;;2.98;81.43
1832;BME280;1680;48.106;11.708;2023-01-29T11:47:28;96409.44;;;2.68;81.58
1832;BME280;1680;48.106;11.708;2023-01-29T11:49:58;96388.81;;;2.59;83.01
1832;BME280;1680;48.106;11.708;2023-01-29T11:52:35;96394.66;;;2.86;81.70
1832;BME280;1680;48.106;11.708;2023-01-29T11:55:06;96378.50;;;2.92;82.95
1832;BME280;1680;48.106;11.708;2023-01-29T11:57:41;96363.34;;;3.05;81.04
1832;BME280;1680;48.106;11.708;2023-01-29T12:00:20;96333.81;;;2.98;82.37
1832;BME280;1680;48.106;11.708;2023-01-29T12:02:53;96340.88;;;3.13;83.86
1832;BME280;1680;48.106;11.708;2023-01-29T12:05:22;96335.53;;;3.23;83.79
1832;BME280;1680;48.106;11.708;2023-01-29T12:07:52;96321.59;;;3.24;83.54
1832;BME280;1680;48.106;11.708;2023-01-29T12:10:32;96313.06;;;3.47;82.27
1832;BME280;1680;48.106;11.708;2023-01-29T12:13:23;96310.81;;;3.44;81.79
1832;BME280;1680;48.106;11.708;2023-01-29T12:16:08;96307.41;;;3.52;81.13
1832;BME280;1680;48.106;11.708;2023-01-29T12:18:40;96309.19;;;3.43;80.11
1832;BME280;1680;48.106;11.708;2023-01-29T12:21:13;96315.81;;;3.46;81.47
1832;BME280;1680;48.106;11.708;2023-01-29T12:23:50;96320.34;;;3.36;80.01
1832;BME280;1680;48.106;11.708;2023-01-29T12:26:24;96310.59;;;3.38;81.39
1832;BME280;1680;48.106;11.708;2023-01-29T12:29:04;96299.97;;;3.49;79.54
1832;BME280;1680;48.106;11.708;2023-01-29T12:31:39;96319.69;;;3.42;78.93
1832;BME280;1680;48.106;11.708;2023-01-29T12:34:14;96326.50;;;3.43;79.59
1832;BME280;1680;48.106;11.708;2023-01-29T12:36:47;96337.69;;;3.51;82.93
1832;BME280;1680;48.106;11.708;2023-01-29T12:39:19;96333.16;;;3.53;80.19
1832;BME280;1680;48.106;11.708;2023-01-29T12:41:50;96333.94;;;3.30;78.63
1832;BME280;1680;48.106;11.708;2023-01-29T12:44:20;96326.84;;;3.48;79.21
1832;BME280;1680;48.106;11.708;2023-01-29T12:46:54;96319.56;;;3.51;79.36
1832;BME280;1680;48.106;11.708;2023-01-29T12:49:24;96233.63;;;3.06;79.54
1832;BME280;1680;48.106;11.708;2023-01-29T12:51:57;96304.13;;;3.42;78.03
1832;BME280;1680;48.106;11.708;2023-01-29T12:54:32;96300.56;;;3.27;78.63
1832;BME280;1680;48.106;11.708;2023-01-29T12:57:03;96300.25;;;3.30;78.79
1832;BME280;1680;48.106;11.708;2023-01-29T12:59:39;96307.34;;;3.28;79.80
1832;BME280;1680;48.106;11.708;2023-01-29T13:02:29;96291.16;;;3.18;79.25
1832;BME280;1680;48.106;11.708;2023-01-29T13:05:02;96286.28;;;3.15;80.93
1832;BME280;1680;48.106;11.708;2023-01-29T13:07:35;96290.81;;;3.05;82.30
1832;BME280;1680;48.106;11.708;2023-01-29T13:10:09;96266.16;;;3.01;83.36
1832;BME280;1680;48.106;11.708;2023-01-29T13:12:42;96259.22;;;3.09;83.01
1832;BME280;1680;48.106;11.708;2023-01-29T13:15:21;96278.81;;;3.04;83.47
1832;BME280;1680;48.106;11.708;2023-01-29T13:17:53;96272.19;;;3.09;83.36
1832;BME280;1680;48.106;11.708;2023-01-29T13:20:25;96252.88;;;2.88;81.89
1832;BME280;1680;48.106;11.708;2023-01-29T13:22:57;96248.25;;;2.66;82.94
1832;BME280;1680;48.106;11.708;2023-01-29T13:25:25;96247.03;;;2.94;82.33
1832;BME280;1680;48.106;11.708;2023-01-29T13:27:53;96245.06;;;2.80;82.71
1832;BME280;1680;48.106;11.708;2023-01-29T13:30:25;96239.22;;;2.70;82.73
1832;BME280;1680;48.106;11.708;2023-01-29T13:32:55;96243.13;;;2.82;82.36
1832;BME280;1680;48.106;11.708;2023-01-29T13:35:34;96243.91;;;2.67;81.70
1832;BME280;1680;48.106;11.708;2023-01-29T13:38:04;96234.22;;;2.77;82.21
1832;BME280;1680;48.106;11.708;2023-01-29T13:40:32;96227.09;;;2.37;83.16
1832;BME280;1680;48.106;11.708;2023-01-29T13:43:01;96242.63;;;2.37;82.37
1832;BME280;1680;48.106;11.708;2023-01-29T13:45:33;96242.22;;;2.50;82.20
1832;BME280;1680;48.106;11.708;2023-01-29T13:48:20;96233.91;;;2.38;82.69